Time;durP1;ratioP1;P1;durP2;ratioP2;P2;SDS_P1;SDS_P2;PMS_P1;PMS_P2;Temp;Humidity;BMP_temperature;BMP_pressure;BME280_temperature;BME280_humidity;BME280_pressure;Samples;Min_cycle;Max_cycle;Signal;HPM_P1;HPM_P2
2022/03/21 00:00:11;;;;;;;;;;;10.70;77.20;11.20;100786.00;;;;338503;28;94348;-88
2022/03/21 00:00:22;;;;;;;;;;;10.70;77.20;11.10;100791.00;;;;339466;28;83368;-87
2022/03/21 00:00:41;;;;;;;;;;;10.70;77.10;11.10;100788.00;;;;337089;28;94651;-88
2022/03/21 00:00:54;;;;;;;;;;;10.70;77.20;11.10;100788.00;;;;340772;28;83404;-88
2022/03/21 00:01:08;;;;;;;;;;;10.70;77.10;11.10;100789.00;;;;338559;28;92956;-87
2022/03/21 00:01:20;;;;;;;;;;;10.70;77.20;11.10;100782.00;;;;339461;28;82263;-87
2022/03/21 00:01:32;;;;;;;;;;;10.70;77.20;11.10;100788.00;;;;338501;28;95800;-88
2022/03/21 00:01:45;;;;;;;;;;;10.70;77.20;11.10;100787.00;;;;340735;28;82445;-88
2022/03/21 00:01:57;;;;;;;;;;;10.60;77.10;11.10;100787.00;;;;337298;28;94521;-88
2022/03/21 00:02:09;;;;;;;;;;;10.70;77.10;11.10;100789.00;;;;337491;28;82664;-88
2022/03/21 00:02:21;;;;;;;;;;;10.70;77.20;11.10;100783.00;;;;339119;28;93992;-88
2022/03/21 00:02:33;;;;;;;;;;;10.70;77.00;11.10;100789.00;;;;339344;28;83636;-88
2022/03/21 00:02:45;;;;;;;;;;;10.70;77.00;11.00;100786.00;;;;337283;28;93460;-87
2022/03/21 00:02:57;;;;;;;;;;;10.70;77.00;11.10;100791.00;;;;339476;28;82432;-88
2022/03/21 00:03:11;;;;;;;;;;;10.70;77.00;11.10;100780.00;;;;337633;28;94583;-87
2022/03/21 00:03:24;;;;;;;;;;;10.60;77.00;11.00;100782.00;;;;338091;28;83434;-87
2022/03/21 00:03:37;;;;;;;;;;;10.70;77.00;11.00;100790.00;;;;339663;28;96695;-87
2022/03/21 00:03:49;;;;;;;;;;;10.60;77.00;11.00;100786.00;;;;339266;28;83436;-87
2022/03/21 00:04:01;;;;;;;;;;;10.60;77.20;10.90;100787.00;;;;337168;28;97794;-87
2022/03/21 00:04:13;;;;;;;;;;;10.60;77.20;11.00;100789.00;;;;339457;28;83339;-88
2022/03/21 00:04:25;;;;;;;;;;;10.60;77.10;11.10;100790.00;;;;337193;28;93064;-87
2022/03/21 00:04:36;;;;;;;;;;;10.60;77.10;11.10;100787.00;;;;338933;28;83718;-87
2022/03/21 00:04:48;;;;;;;;;;;10.70;77.00;11.00;100790.00;;;;337223;28;93122;-87
2022/03/21 00:05:00;;;;;;;;;;;10.60;76.90;11.00;100798.00;;;;336802;28;83362;-87
2022/03/21 00:05:12;;;;;;;;;;;10.60;76.80;11.00;100794.00;;;;339466;28;96505;-87
2022/03/21 00:05:23;;;;;;;;;;;10.60;76.90;11.00;100788.00;;;;340625;28;83482;-89
2022/03/21 00:05:36;;;;;;;;;;;10.60;76.80;11.00;100796.00;;;;339756;28;95281;-87
2022/03/21 00:05:47;;;;;;;;;;;10.60;76.90;11.00;100785.00;;;;339071;28;83476;-87
2022/03/21 00:05:59;;;;;;;;;;;10.60;77.10;10.90;100785.00;;;;338579;28;93301;-87
2022/03/21 00:06:11;;;;;;;;;;;10.60;77.10;11.10;100788.00;;;;338768;28;83539;-87
2022/03/21 00:06:23;;;;;;;;;;;10.60;76.90;11.10;100792.00;;;;338354;28;95843;-87
2022/03/21 00:06:35;;;;;;;;;;;10.60;76.80;11.00;100785.00;;;;339370;28;83423;-88
2022/03/21 00:06:47;;;;;;;;;;;10.60;76.90;11.00;100798.00;;;;338061;28;93577;-88
2022/03/21 00:06:59;;;;;;;;;;;10.60;77.00;10.90;100797.00;;;;339384;28;83396;-88
2022/03/21 00:07:10;;;;;;;;;;;10.60;77.00;10.90;100787.00;;;;337131;28;96601;-88
2022/03/21 00:07:22;;;;;;;;;;;10.60;76.90;10.90;100787.00;;;;339385;28;83344;-88
2022/03/21 00:07:34;;;;;;;;;;;10.60;76.90;10.90;100789.00;;;;337306;28;95434;-88
2022/03/21 00:07:46;;;;;;;;;;;10.60;76.90;10.90;100787.00;;;;337776;28;83481;-88
2022/03/21 00:07:57;;;;;;;;;;;10.60;76.90;11.00;100790.00;;;;339744;28;93499;-88
2022/03/21 00:08:11;;;;;;;;;;;10.60;76.80;11.00;100793.00;;;;338074;28;83598;-87
2022/03/21 00:08:24;;;;;;;;;;;10.60;76.70;11.00;100785.00;;;;335721;28;94564;-88
2022/03/21 00:08:36;;;;;;;;;;;10.60;76.60;11.00;100790.00;;;;340480;28;83524;-87
2022/03/21 00:08:47;;;;;;;;;;;10.60;76.70;11.00;100793.00;;;;337171;28;94813;-87
2022/03/21 00:08:59;;;;;;;;;;;10.60;76.80;11.00;100791.00;;;;339399;28;83328;-87
2022/03/21 00:09:11;;;;;;;;;;;10.60;76.80;11.00;100788.00;;;;340925;28;96723;-87
2022/03/21 00:09:23;;;;;;;;;;;10.60;76.80;11.00;100789.00;;;;340529;28;83422;-87
2022/03/21 00:09:36;;;;;;;;;;;10.60;77.00;11.00;100794.00;;;;335962;28;95596;-88
2022/03/21 00:09:49;;;;;;;;;;;10.60;76.90;11.00;100786.00;;;;337901;28;83524;-88
2022/03/21 00:10:01;;;;;;;;;;;10.60;76.80;11.00;100794.00;;;;338244;28;96082;-87
2022/03/21 00:10:13;;;;;;;;;;;10.60;76.80;11.00;100780.00;;;;338131;28;83281;-88
2022/03/21 00:10:25;;;;;;;;;;;10.60;76.70;10.90;100794.00;;;;337256;28;95275;-87
2022/03/21 00:10:40;;;;;;;;;;;10.60;76.70;11.00;100785.00;;;;339361;28;83455;-87
2022/03/21 00:10:54;;;;;;;;;;;10.60;76.80;11.00;100790.00;;;;339940;28;94282;-87
2022/03/21 00:11:06;;;;;;;;;;;10.60;76.80;11.00;100797.00;;;;339004;28;83279;-87
2022/03/21 00:11:18;;;;;;;;;;;10.60;76.80;10.90;100789.00;;;;335909;28;93731;-87
2022/03/21 00:11:31;;;;;;;;;;;10.60;76.80;10.90;100793.00;;;;339390;28;83346;-88
2022/03/21 00:11:42;;;;;;;;;;;10.60;76.80;10.90;100785.00;;;;337023;28;98529;-88
2022/03/21 00:11:54;;;;;;;;;;;10.60;76.90;10.90;100783.00;;;;336605;28;83581;-87
2022/03/21 00:12:06;;;;;;;;;;;10.60;76.80;10.90;100787.00;;;;334519;28;96888;-88
2022/03/21 00:12:18;;;;;;;;;;;10.60;76.80;11.00;100792.00;;;;337876;28;83595;-88
2022/03/21 00:12:30;;;;;;;;;;;10.60;76.80;10.90;100788.00;;;;337247;28;96978;-88
2022/03/21 00:12:42;;;;;;;;;;;10.50;76.80;10.90;100783.00;;;;336686;28;82512;-87
2022/03/21 00:12:54;;;;;;;;;;;10.60;76.80;11.00;100789.00;;;;338571;28;97357;-87
2022/03/21 00:13:06;;;;;;;;;;;10.60;76.80;11.00;100796.00;;;;339196;28;83436;-88
2022/03/21 00:13:18;;;;;;;;;;;10.50;76.80;11.00;100785.00;;;;337360;28;93938;-88
2022/03/21 00:13:30;;;;;;;;;;;10.60;76.90;10.90;100789.00;;;;335392;29;83226;-87
2022/03/21 00:13:42;;;;;;;;;;;10.60;76.80;11.00;100793.00;;;;338524;28;95122;-87
2022/03/21 00:13:55;;;;;;;;;;;10.60;76.90;11.00;100795.00;;;;336346;28;83529;-87
2022/03/21 00:14:07;;;;;;;;;;;10.60;76.90;10.90;100792.00;;;;336154;28;97355;-88
2022/03/21 00:14:19;;;;;;;;;;;10.60;77.10;10.90;100791.00;;;;340201;28;82630;-87
2022/03/21 00:14:30;;;;;;;;;;;10.50;77.20;11.00;100794.00;;;;338397;28;96657;-87
2022/03/21 00:14:44;;;;;;;;;;;10.50;77.10;11.00;100798.00;;;;337966;28;83486;-87
2022/03/21 00:14:55;;;;;;;;;;;10.60;76.80;11.00;100799.00;;;;338619;28;92701;-87
2022/03/21 00:15:11;;;;;;;;;;;10.50;76.70;11.00;100794.00;;;;340252;28;83678;-87
2022/03/21 00:15:23;;;;;;;;;;;10.60;77.00;11.00;100790.00;;;;338471;28;95668;-88
2022/03/21 00:15:35;;;;;;;;;;;10.60;76.90;10.90;100794.00;;;;338040;28;83505;-87
2022/03/21 00:15:50;;;;;;;;;;;10.60;76.90;10.90;100792.00;;;;339722;28;98099;-87
2022/03/21 00:16:03;;;;;;;;;;;10.60;76.80;10.90;100791.00;;;;339076;28;83603;-88
2022/03/21 00:16:15;;;;;;;;;;;10.60;76.80;10.90;100790.00;;;;336847;28;95779;-88
2022/03/21 00:16:27;;;;;;;;;;;10.60;76.70;10.90;100799.00;;;;336675;28;83499;-87
2022/03/21 00:16:40;;;;;;;;;;;10.60;76.70;11.00;100787.00;;;;338579;28;93124;-87
2022/03/21 00:16:52;;;;;;;;;;;10.50;76.60;10.90;100791.00;;;;337934;28;83418;-87
2022/03/21 00:17:03;;;;;;;;;;;10.50;76.50;10.90;100788.00;;;;338288;28;93845;-88
2022/03/21 00:17:15;;;;;;;;;;;10.50;76.40;10.90;100796.00;;;;339631;28;83512;-87
2022/03/21 00:17:28;;;;;;;;;;;10.60;76.50;10.90;100796.00;;;;339808;28;94443;-88
2022/03/21 00:17:41;;;;;;;;;;;10.50;77.00;11.00;100799.00;;;;337770;28;82650;-88
2022/03/21 00:17:53;;;;;;;;;;;10.60;76.50;10.90;100788.00;;;;337059;28;94783;-88
2022/03/21 00:18:04;;;;;;;;;;;10.60;76.70;10.90;100788.00;;;;337975;28;83418;-88
2022/03/21 00:18:16;;;;;;;;;;;10.50;76.60;10.90;100797.00;;;;339794;28;95414;-88
2022/03/21 00:18:29;;;;;;;;;;;10.50;76.70;10.80;100797.00;;;;340388;28;83399;-87
2022/03/21 00:18:41;;;;;;;;;;;10.50;77.00;10.90;100792.00;;;;338639;28;94185;-87
2022/03/21 00:18:53;;;;;;;;;;;10.50;77.00;10.90;100796.00;;;;339119;28;83566;-87
2022/03/21 00:19:05;;;;;;;;;;;10.50;77.00;10.90;100790.00;;;;337148;28;94481;-88
2022/03/21 00:19:17;;;;;;;;;;;10.50;77.10;10.90;100787.00;;;;338075;28;83232;-87
2022/03/21 00:19:29;;;;;;;;;;;10.50;76.90;10.90;100795.00;;;;338661;28;93847;-87
2022/03/21 00:19:40;;;;;;;;;;;10.50;76.70;10.90;100797.00;;;;339381;28;83301;-87
2022/03/21 00:19:52;;;;;;;;;;;10.50;76.60;11.00;100792.00;;;;337076;28;96761;-87
2022/03/21 00:20:06;;;;;;;;;;;10.50;76.60;11.00;100795.00;;;;338956;28;83508;-88
2022/03/21 00:20:18;;;;;;;;;;;10.50;76.70;10.90;100790.00;;;;337337;28;94175;-87
2022/03/21 00:20:31;;;;;;;;;;;10.50;76.60;10.90;100795.00;;;;336710;28;82622;-87
2022/03/21 00:20:44;;;;;;;;;;;10.50;76.60;10.90;100795.00;;;;337888;28;94961;-88
2022/03/21 00:20:56;;;;;;;;;;;10.50;76.90;10.80;100796.00;;;;340566;28;83512;-87
2022/03/21 00:21:07;;;;;;;;;;;10.50;77.00;10.90;100796.00;;;;337014;28;95463;-88
2022/03/21 00:21:19;;;;;;;;;;;10.50;77.00;10.90;100790.00;;;;336841;28;83601;-88
2022/03/21 00:21:31;;;;;;;;;;;10.50;76.80;11.00;100794.00;;;;336034;28;93051;-88
2022/03/21 00:21:43;;;;;;;;;;;10.50;76.70;11.00;100787.00;;;;339249;28;83527;-87
2022/03/21 00:21:54;;;;;;;;;;;10.50;76.60;10.90;100797.00;;;;338448;28;94885;-88
2022/03/21 00:22:06;;;;;;;;;;;10.50;76.60;11.00;100797.00;;;;340654;28;82497;-88
2022/03/21 00:22:20;;;;;;;;;;;10.50;76.60;11.00;100788.00;;;;339689;28;92769;-88
2022/03/21 00:22:33;;;;;;;;;;;10.50;76.40;11.00;100788.00;;;;341447;28;82490;-87
2022/03/21 00:22:45;;;;;;;;;;;10.50;76.50;11.00;100793.00;;;;338656;28;95593;-87
2022/03/21 00:22:58;;;;;;;;;;;10.50;76.30;11.00;100794.00;;;;341253;28;82432;-87
2022/03/21 00:23:10;;;;;;;;;;;10.50;76.40;11.10;100794.00;;;;339008;28;93930;-87
2022/03/21 00:23:23;;;;;;;;;;;10.50;76.40;11.10;100788.00;;;;338719;28;82405;-87
2022/03/21 00:23:35;;;;;;;;;;;10.60;76.40;11.00;100789.00;;;;338017;28;95583;-87
2022/03/21 00:23:48;;;;;;;;;;;10.60;76.50;11.00;100795.00;;;;338755;28;83207;-87
2022/03/21 00:24:00;;;;;;;;;;;10.60;76.50;11.00;100801.00;;;;337910;28;94013;-87
2022/03/21 00:24:14;;;;;;;;;;;10.50;76.40;11.00;100790.00;;;;339727;28;82518;-87
2022/03/21 00:24:26;;;;;;;;;;;10.60;76.60;11.00;100797.00;;;;335070;29;95860;-87
2022/03/21 00:24:38;;;;;;;;;;;10.50;77.00;11.00;100798.00;;;;338433;28;82541;-87
2022/03/21 00:24:50;;;;;;;;;;;10.60;76.50;11.00;100797.00;;;;337462;28;97118;-87
2022/03/21 00:25:02;;;;;;;;;;;10.60;76.60;11.00;100790.00;;;;339638;28;83338;-87
2022/03/21 00:25:14;;;;;;;;;;;10.60;76.50;11.00;100796.00;;;;337334;28;96973;-87
2022/03/21 00:25:26;;;;;;;;;;;10.50;76.30;11.00;100798.00;;;;338072;28;83503;-87
2022/03/21 00:25:38;;;;;;;;;;;10.60;76.30;11.00;100798.00;;;;337255;28;96670;-88
2022/03/21 00:25:50;;;;;;;;;;;10.50;76.20;11.00;100797.00;;;;337805;28;82991;-88
2022/03/21 00:26:03;;;;;;;;;;;10.60;76.20;11.00;100785.00;;;;337081;28;97293;-87
2022/03/21 00:26:17;;;;;;;;;;;10.60;76.20;11.00;100795.00;;;;337174;28;83640;-87
2022/03/21 00:26:29;;;;;;;;;;;10.60;76.20;11.00;100793.00;;;;338361;28;94531;-88
2022/03/21 00:26:40;;;;;;;;;;;10.50;76.20;11.10;100789.00;;;;339301;28;82434;-88
2022/03/21 00:26:52;;;;;;;;;;;10.60;76.30;11.00;100795.00;;;;335871;28;95012;-87
2022/03/21 00:27:05;;;;;;;;;;;10.50;76.40;11.00;100787.00;;;;340401;28;83525;-87
2022/03/21 00:27:17;;;;;;;;;;;10.50;76.30;11.00;100797.00;;;;338459;28;96811;-87
2022/03/21 00:27:29;;;;;;;;;;;10.60;76.40;11.00;100795.00;;;;340723;28;82413;-87
2022/03/21 00:27:40;;;;;;;;;;;10.50;76.30;11.00;100787.00;;;;337320;28;93444;-87
2022/03/21 00:27:54;;;;;;;;;;;10.60;76.30;10.90;100786.00;;;;337471;28;83570;-88
2022/03/21 00:28:07;;;;;;;;;;;10.50;76.40;11.00;100793.00;;;;338314;28;97957;-88
2022/03/21 00:28:19;;;;;;;;;;;10.60;76.50;11.00;100785.00;;;;339163;28;83510;-87
2022/03/21 00:28:31;;;;;;;;;;;10.60;76.40;11.00;100786.00;;;;339780;28;94532;-87
2022/03/21 00:28:43;;;;;;;;;;;10.60;76.60;11.10;100789.00;;;;339393;28;83289;-87
2022/03/21 00:28:55;;;;;;;;;;;10.60;76.60;11.10;100801.00;;;;337283;28;93558;-88
2022/03/21 00:29:08;;;;;;;;;;;10.60;76.40;11.00;100796.00;;;;338957;28;83415;-87
2022/03/21 00:29:20;;;;;;;;;;;10.60;76.40;11.00;100794.00;;;;339447;28;95676;-87
2022/03/21 00:29:31;;;;;;;;;;;10.50;76.20;11.10;100795.00;;;;339250;28;83281;-88
2022/03/21 00:29:43;;;;;;;;;;;10.60;76.20;11.00;100791.00;;;;337029;28;93434;-88
2022/03/21 00:29:55;;;;;;;;;;;10.60;76.20;11.00;100792.00;;;;342047;28;82405;-87
2022/03/21 00:30:09;;;;;;;;;;;10.60;76.30;11.00;100794.00;;;;338345;28;94150;-87
2022/03/21 00:30:21;;;;;;;;;;;10.60;76.40;11.00;100797.00;;;;338125;28;82409;-87
2022/03/21 00:30:37;;;;;;;;;;;10.60;76.50;10.90;100786.00;;;;339669;28;95328;-87
2022/03/21 00:30:50;;;;;;;;;;;10.60;76.40;10.90;100789.00;;;;340471;28;82583;-87
2022/03/21 00:31:03;;;;;;;;;;;10.50;76.40;11.00;100788.00;;;;338575;28;94339;-87
2022/03/21 00:31:16;;;;;;;;;;;10.60;76.50;11.00;100796.00;;;;339319;28;82493;-87
2022/03/21 00:31:28;;;;;;;;;;;10.60;76.40;10.90;100780.00;;;;338597;28;93344;-87
2022/03/21 00:31:40;;;;;;;;;;;10.50;76.40;10.80;100791.00;;;;339346;28;82263;-87
2022/03/21 00:31:54;;;;;;;;;;;10.50;76.70;10.90;100786.00;;;;338269;28;93849;-88
2022/03/21 00:32:06;;;;;;;;;;;10.50;76.70;10.80;100793.00;;;;336664;28;83517;-88
2022/03/21 00:32:18;;;;;;;;;;;10.50;76.60;10.80;100795.00;;;;338189;28;98126;-88
2022/03/21 00:32:30;;;;;;;;;;;10.50;76.50;10.80;100787.00;;;;338043;28;82612;-88
2022/03/21 00:32:42;;;;;;;;;;;10.50;76.60;10.90;100789.00;;;;338476;28;94359;-87
2022/03/21 00:32:54;;;;;;;;;;;10.50;76.50;10.80;100790.00;;;;337984;28;83351;-87
2022/03/21 00:33:06;;;;;;;;;;;10.50;76.60;10.80;100788.00;;;;339666;28;96366;-88
2022/03/21 00:33:18;;;;;;;;;;;10.50;76.60;10.80;100792.00;;;;340683;28;83509;-88
2022/03/21 00:33:30;;;;;;;;;;;10.50;76.60;10.80;100796.00;;;;339925;28;93289;-87
2022/03/21 00:33:42;;;;;;;;;;;10.50;76.70;10.80;100794.00;;;;336798;28;82441;-87
2022/03/21 00:33:54;;;;;;;;;;;10.50;76.60;10.80;100798.00;;;;337254;28;94682;-87
2022/03/21 00:34:07;;;;;;;;;;;10.50;76.60;10.80;100792.00;;;;337841;28;82618;-87
2022/03/21 00:34:19;;;;;;;;;;;10.50;77.30;10.80;100791.00;;;;336950;28;98099;-87
2022/03/21 00:34:31;;;;;;;;;;;10.40;76.60;10.80;100797.00;;;;339342;28;83566;-87
2022/03/21 00:34:43;;;;;;;;;;;10.40;76.50;10.80;100795.00;;;;338471;28;94887;-88
2022/03/21 00:34:55;;;;;;;;;;;10.40;76.50;10.90;100792.00;;;;339227;28;83362;-87
2022/03/21 00:35:07;;;;;;;;;;;10.40;76.60;10.90;100797.00;;;;339489;28;94606;-87
2022/03/21 00:35:20;;;;;;;;;;;10.50;76.60;10.80;100786.00;;;;340878;28;82533;-87
2022/03/21 00:35:32;;;;;;;;;;;10.40;76.50;10.90;100797.00;;;;337243;28;94722;-87
2022/03/21 00:35:44;;;;;;;;;;;10.40;76.70;10.90;100797.00;;;;339284;28;82498;-87
2022/03/21 00:35:58;;;;;;;;;;;10.40;76.80;10.90;100794.00;;;;338194;28;97748;-87
2022/03/21 00:36:10;;;;;;;;;;;10.50;76.80;10.90;100798.00;;;;339182;28;83733;-87
2022/03/21 00:36:42;;;;;;;;;;;10.40;76.80;10.90;100798.00;;;;337167;28;97684;-88
2022/03/21 00:36:59;;;;;;;;;;;10.50;76.80;10.90;100800.00;;;;339218;28;83555;-88
2022/03/21 00:37:12;;;;;;;;;;;10.50;76.70;10.80;100799.00;;;;339868;28;92603;-88
2022/03/21 00:37:24;;;;;;;;;;;10.40;76.80;10.90;100793.00;;;;339332;28;82366;-87
2022/03/21 00:37:37;;;;;;;;;;;10.40;76.80;10.90;100793.00;;;;334738;29;93751;-87
2022/03/21 00:37:49;;;;;;;;;;;10.50;76.80;10.90;100798.00;;;;337940;28;83399;-87
2022/03/21 00:38:01;;;;;;;;;;;10.40;76.70;10.90;100790.00;;;;339901;28;94199;-87
2022/03/21 00:38:16;;;;;;;;;;;10.40;76.70;10.90;100794.00;;;;337827;28;82758;-87
2022/03/21 00:38:28;;;;;;;;;;;10.40;76.80;10.90;100796.00;;;;339650;28;93774;-88
2022/03/21 00:38:41;;;;;;;;;;;10.40;76.70;10.80;100797.00;;;;338329;28;83517;-87
2022/03/21 00:38:53;;;;;;;;;;;10.40;76.80;10.80;100801.00;;;;337047;28;95531;-88
2022/03/21 00:39:05;;;;;;;;;;;10.40;76.90;10.80;100787.00;;;;339033;28;82496;-87
2022/03/21 00:39:17;;;;;;;;;;;10.40;77.00;10.80;100797.00;;;;338428;28;94604;-87
2022/03/21 00:39:29;;;;;;;;;;;10.40;76.90;10.80;100796.00;;;;339412;28;82476;-87
2022/03/21 00:39:41;;;;;;;;;;;10.40;76.80;10.80;100797.00;;;;335998;28;94192;-87
2022/03/21 00:39:52;;;;;;;;;;;10.40;76.80;10.80;100793.00;;;;340372;28;83552;-88
2022/03/21 00:40:06;;;;;;;;;;;10.40;76.70;10.70;100789.00;;;;338529;28;95039;-87
2022/03/21 00:40:18;;;;;;;;;;;10.40;76.70;10.80;100798.00;;;;335394;29;82574;-87
2022/03/21 00:40:30;;;;;;;;;;;10.40;76.80;10.80;100794.00;;;;338482;28;94587;-88
2022/03/21 00:40:44;;;;;;;;;;;10.40;76.90;10.80;100789.00;;;;340695;28;83367;-88
2022/03/21 00:40:56;;;;;;;;;;;10.40;76.90;10.80;100797.00;;;;335877;28;95111;-87
2022/03/21 00:41:08;;;;;;;;;;;10.40;76.90;10.90;100796.00;;;;337070;28;83590;-87
2022/03/21 00:41:22;;;;;;;;;;;10.40;76.90;10.90;100796.00;;;;338468;28;92872;-87
2022/03/21 00:41:34;;;;;;;;;;;10.40;76.70;10.80;100798.00;;;;337683;28;83458;-88
2022/03/21 00:41:46;;;;;;;;;;;10.40;76.70;10.80;100800.00;;;;337155;28;94545;-88
2022/03/21 00:41:58;;;;;;;;;;;10.40;77.00;10.90;100801.00;;;;340655;28;83423;-87
2022/03/21 00:42:12;;;;;;;;;;;10.40;76.90;10.90;100796.00;;;;339816;28;94291;-87
2022/03/21 00:42:25;;;;;;;;;;;10.40;77.10;10.90;100796.00;;;;338935;28;83382;-88
2022/03/21 00:42:38;;;;;;;;;;;10.40;77.00;10.90;100795.00;;;;337271;28;94125;-88
2022/03/21 00:42:50;;;;;;;;;;;10.40;76.80;10.80;100796.00;;;;339352;28;83316;-87
2022/03/21 00:43:08;;;;;;;;;;;10.40;76.70;10.90;100799.00;;;;337065;28;97436;-87
2022/03/21 00:43:23;;;;;;;;;;;10.40;76.70;10.90;100802.00;;;;339351;28;83377;-88
2022/03/21 00:43:35;;;;;;;;;;;10.40;76.70;10.80;100798.00;;;;338566;28;95726;-88
2022/03/21 00:43:47;;;;;;;;;;;10.40;76.70;10.90;100797.00;;;;337769;28;83416;-88
2022/03/21 00:43:59;;;;;;;;;;;10.40;76.70;10.90;100801.00;;;;338490;28;94984;-87
2022/03/21 00:44:11;;;;;;;;;;;10.50;76.70;10.80;100804.00;;;;338090;28;83556;-88
2022/03/21 00:44:23;;;;;;;;;;;10.50;76.80;10.90;100802.00;;;;334521;29;94173;-88
2022/03/21 00:44:35;;;;;;;;;;;10.50;76.70;10.90;100803.00;;;;339188;28;83388;-88
2022/03/21 00:44:47;;;;;;;;;;;10.40;76.70;10.90;100800.00;;;;338546;28;94145;-87
2022/03/21 00:44:58;;;;;;;;;;;10.50;76.70;10.80;100797.00;;;;340401;28;83404;-88
2022/03/21 00:45:12;;;;;;;;;;;10.40;76.70;10.80;100796.00;;;;338372;28;94856;-88
2022/03/21 00:45:24;;;;;;;;;;;10.40;76.50;10.80;100788.00;;;;337851;28;83503;-87
2022/03/21 00:45:36;;;;;;;;;;;10.40;76.70;10.90;100801.00;;;;339925;28;94572;-88
2022/03/21 00:45:50;;;;;;;;;;;10.40;76.70;10.80;100802.00;;;;343332;28;83442;-87
2022/03/21 00:46:02;;;;;;;;;;;10.40;76.60;10.80;100794.00;;;;338880;28;95332;-87
2022/03/21 00:46:14;;;;;;;;;;;10.40;76.70;10.80;100802.00;;;;338120;28;82536;-87
2022/03/21 00:46:26;;;;;;;;;;;10.40;76.60;10.80;100794.00;;;;338551;28;93996;-87
2022/03/21 00:46:38;;;;;;;;;;;10.40;76.70;10.80;100804.00;;;;339393;28;83630;-87
2022/03/21 00:46:50;;;;;;;;;;;10.40;76.50;10.80;100804.00;;;;339867;28;94608;-88
2022/03/21 00:47:02;;;;;;;;;;;10.40;76.50;10.70;100801.00;;;;339164;28;83523;-88
2022/03/21 00:47:16;;;;;;;;;;;10.40;76.60;10.80;100800.00;;;;337860;28;96698;-87
2022/03/21 00:47:28;;;;;;;;;;;10.40;76.50;10.80;100799.00;;;;338030;28;83597;-87
2022/03/21 00:47:40;;;;;;;;;;;10.40;76.50;10.70;100803.00;;;;335862;28;94383;-87
2022/03/21 00:47:53;;;;;;;;;;;10.40;76.80;10.80;100794.00;;;;336595;28;83440;-87
2022/03/21 00:48:05;;;;;;;;;;;10.40;76.70;10.80;100802.00;;;;338336;28;96204;-87
2022/03/21 00:48:17;;;;;;;;;;;10.40;76.70;10.90;100798.00;;;;340493;28;83465;-88
2022/03/21 00:48:29;;;;;;;;;;;10.40;76.70;10.80;100803.00;;;;339956;28;92881;-87
2022/03/21 00:48:42;;;;;;;;;;;10.40;76.70;10.90;100801.00;;;;337943;28;83523;-87
2022/03/21 00:48:53;;;;;;;;;;;10.40;76.70;10.80;100807.00;;;;339624;28;95782;-87
2022/03/21 00:49:08;;;;;;;;;;;10.40;76.50;10.90;100796.00;;;;340663;28;82453;-88
2022/03/21 00:49:20;;;;;;;;;;;10.40;76.40;10.80;100803.00;;;;339605;28;96531;-88
2022/03/21 00:49:31;;;;;;;;;;;10.40;76.70;10.80;100802.00;;;;337729;28;82494;-87
2022/03/21 00:49:44;;;;;;;;;;;10.40;76.70;10.80;100803.00;;;;337087;28;95559;-88
2022/03/21 00:49:56;;;;;;;;;;;10.40;76.70;10.80;100807.00;;;;337792;28;82706;-88
2022/03/21 00:50:09;;;;;;;;;;;10.40;76.70;10.80;100801.00;;;;338938;28;93119;-88
2022/03/21 00:50:22;;;;;;;;;;;10.40;76.80;10.80;100802.00;;;;338387;28;83435;-89
2022/03/21 00:50:35;;;;;;;;;;;10.40;76.80;10.80;100805.00;;;;336993;28;94812;-88
2022/03/21 00:50:47;;;;;;;;;;;10.40;76.80;10.80;100808.00;;;;340706;28;82449;-88
2022/03/21 00:50:59;;;;;;;;;;;10.40;76.70;10.80;100804.00;;;;338638;28;93895;-88
2022/03/21 00:51:11;;;;;;;;;;;10.40;76.70;10.90;100797.00;;;;337743;28;83600;-88
2022/03/21 00:51:23;;;;;;;;;;;10.40;76.70;10.90;100809.00;;;;338450;28;94762;-88
2022/03/21 00:51:35;;;;;;;;;;;10.40;76.70;10.90;100805.00;;;;339453;28;83282;-87
2022/03/21 00:51:47;;;;;;;;;;;10.40;76.60;10.90;100804.00;;;;338409;28;93754;-88
2022/03/21 00:51:58;;;;;;;;;;;10.40;76.60;10.80;100809.00;;;;336757;28;83305;-88
2022/03/21 00:52:10;;;;;;;;;;;10.40;76.60;10.80;100807.00;;;;337493;28;95631;-88
2022/03/21 00:52:22;;;;;;;;;;;10.40;76.60;10.70;100807.00;;;;337990;28;83410;-88
2022/03/21 00:52:46;;;;;;;;;;;10.40;76.70;10.70;100813.00;;;;339335;28;95899;-88
2022/03/21 00:52:58;;;;;;;;;;;10.40;76.70;10.80;100808.00;;;;340748;28;83320;-88
2022/03/21 00:53:10;;;;;;;;;;;10.40;76.80;10.80;100799.00;;;;337922;28;94111;-88
2022/03/21 00:53:22;;;;;;;;;;;10.40;76.80;10.80;100811.00;;;;339130;28;83445;-87
2022/03/21 00:53:34;;;;;;;;;;;10.40;76.90;10.80;100810.00;;;;339782;28;93825;-88
2022/03/21 00:53:46;;;;;;;;;;;10.40;76.80;10.80;100802.00;;;;337849;28;83303;-88
2022/03/21 00:53:58;;;;;;;;;;;10.40;76.70;10.80;100806.00;;;;337065;28;95437;-88
2022/03/21 00:54:10;;;;;;;;;;;10.40;76.70;10.90;100804.00;;;;336625;28;83311;-88
2022/03/21 00:54:21;;;;;;;;;;;10.40;76.70;10.80;100810.00;;;;338241;28;95910;-88
2022/03/21 00:54:33;;;;;;;;;;;10.40;76.70;10.80;100807.00;;;;337978;28;83386;-88
2022/03/21 00:54:45;;;;;;;;;;;10.40;76.60;10.80;100800.00;;;;337162;28;94753;-88
2022/03/21 00:54:57;;;;;;;;;;;10.40;76.50;10.90;100797.00;;;;340665;28;83353;-88
2022/03/21 00:55:09;;;;;;;;;;;10.40;76.40;10.80;100806.00;;;;338283;28;95966;-88
2022/03/21 00:55:26;;;;;;;;;;;10.40;76.60;10.80;100807.00;;;;340542;28;83295;-88
2022/03/21 00:55:37;;;;;;;;;;;10.40;76.50;10.80;100803.00;;;;338586;28;93826;-88
2022/03/21 00:55:50;;;;;;;;;;;10.40;76.40;10.70;100807.00;;;;340500;28;83236;-88
2022/03/21 00:56:02;;;;;;;;;;;10.40;76.40;10.70;100809.00;;;;339944;28;94614;-88
2022/03/21 00:56:13;;;;;;;;;;;10.40;76.60;10.60;100801.00;;;;340328;28;82545;-87
2022/03/21 00:56:25;;;;;;;;;;;10.30;76.80;10.60;100798.00;;;;338165;28;95272;-87
2022/03/21 00:56:37;;;;;;;;;;;10.30;77.00;10.60;100801.00;;;;337284;28;83473;-87
2022/03/21 00:56:49;;;;;;;;;;;10.30;77.10;10.60;100807.00;;;;337215;28;94211;-88
2022/03/21 00:57:01;;;;;;;;;;;10.30;77.00;10.60;100809.00;;;;340724;28;82201;-87
2022/03/21 00:57:13;;;;;;;;;;;10.30;76.90;10.70;100800.00;;;;335482;28;96215;-87
2022/03/21 00:57:25;;;;;;;;;;;10.30;76.80;10.60;100806.00;;;;339090;28;83368;-87
2022/03/21 00:57:38;;;;;;;;;;;10.30;76.70;10.60;100805.00;;;;339858;28;94183;-88
2022/03/21 00:57:50;;;;;;;;;;;10.30;76.70;10.70;100807.00;;;;336652;28;83332;-88
2022/03/21 00:58:01;;;;;;;;;;;10.30;76.60;10.60;100802.00;;;;337314;28;93691;-87
2022/03/21 00:58:14;;;;;;;;;;;10.30;76.70;10.60;100804.00;;;;339395;28;83268;-88
2022/03/21 00:58:26;;;;;;;;;;;10.30;76.70;10.60;100802.00;;;;337174;28;94247;-88
2022/03/21 00:58:37;;;;;;;;;;;10.30;76.60;10.60;100800.00;;;;337769;28;82443;-88
2022/03/21 00:58:49;;;;;;;;;;;10.30;76.70;10.50;100801.00;;;;338613;28;93217;-87
2022/03/21 00:59:01;;;;;;;;;;;10.30;76.90;10.70;100808.00;;;;340663;28;83361;-87
2022/03/21 00:59:13;;;;;;;;;;;10.30;76.90;10.70;100812.00;;;;340280;28;92754;-87
2022/03/21 00:59:25;;;;;;;;;;;10.30;76.90;10.60;100803.00;;;;339265;28;82531;-87
2022/03/21 00:59:36;;;;;;;;;;;10.30;76.90;10.60;100801.00;;;;336936;28;96347;-88
2022/03/21 00:59:48;;;;;;;;;;;10.30;76.90;10.60;100803.00;;;;335286;29;82578;-88
2022/03/21 01:00:01;;;;;;;;;;;10.30;77.00;10.50;100812.00;;;;337229;28;96931;-87
2022/03/21 01:00:18;;;;;;;;;;;10.20;76.90;10.60;100805.00;;;;338956;28;83475;-87
2022/03/21 01:00:30;;;;;;;;;;;10.20;76.90;10.60;100815.00;;;;337190;28;93500;-87
2022/03/21 01:00:43;;;;;;;;;;;10.20;76.90;10.60;100808.00;;;;336807;28;82333;-87
2022/03/21 01:00:56;;;;;;;;;;;10.20;77.00;10.60;100807.00;;;;338574;28;94786;-87